sensor_id;sensor_type;location;lat;lon;timestamp;P1;durP1;ratioP1;P2;durP2;ratioP2
13799;SDS011;6971;50.028;9.258;2023-02-11T00:03:22;52.07;;;33.03;;
13799;SDS011;6971;50.028;9.258;2023-02-11T00:08:23;48.30;;;32.17;;
13799;SDS011;6971;50.028;9.258;2023-02-11T00:13:23;54.37;;;34.17;;
13799;SDS011;6971;50.028;9.258;2023-02-11T00:18:24;51.07;;;32.57;;
13799;SDS011;6971;50.028;9.258;2023-02-11T00:23:24;49.77;;;31.00;;
13799;SDS011;6971;50.028;9.258;2023-02-11T00:28:24;51.17;;;32.80;;
13799;SDS011;6971;50.028;9.258;2023-02-11T00:33:25;51.20;;;33.27;;
13799;SDS011;6971;50.028;9.258;2023-02-11T00:38:25;48.20;;;32.57;;
13799;SDS011;6971;50.028;9.258;2023-02-11T00:43:25;48.80;;;32.10;;
13799;SDS011;6971;50.028;9.258;2023-02-11T00:48:26;48.10;;;31.20;;
13799;SDS011;6971;50.028;9.258;2023-02-11T00:53:26;48.57;;;31.27;;
13799;SDS011;6971;50.028;9.258;2023-02-11T00:58:28;48.53;;;32.10;;
13799;SDS011;6971;50.028;9.258;2023-02-11T01:03:29;55.53;;;33.37;;
13799;SDS011;6971;50.028;9.258;2023-02-11T01:08:30;53.60;;;32.80;;
13799;SDS011;6971;50.028;9.258;2023-02-11T01:13:31;50.23;;;33.57;;
13799;SDS011;6971;50.028;9.258;2023-02-11T01:18:32;48.50;;;32.57;;
13799;SDS011;6971;50.028;9.258;2023-02-11T01:23:33;52.93;;;32.50;;
13799;SDS011;6971;50.028;9.258;2023-02-11T01:28:33;52.00;;;32.10;;
13799;SDS011;6971;50.028;9.258;2023-02-11T01:33:33;48.80;;;31.83;;
13799;SDS011;6971;50.028;9.258;2023-02-11T01:38:34;60.50;;;36.30;;
13799;SDS011;6971;50.028;9.258;2023-02-11T01:43:39;55.17;;;34.17;;
13799;SDS011;6971;50.028;9.258;2023-02-11T01:48:42;53.20;;;34.53;;
13799;SDS011;6971;50.028;9.258;2023-02-11T01:53:46;51.37;;;33.80;;
13799;SDS011;6971;50.028;9.258;2023-02-11T01:59:10;52.80;;;35.10;;
13799;SDS011;6971;50.028;9.258;2023-02-11T02:04:14;52.70;;;34.07;;
13799;SDS011;6971;50.028;9.258;2023-02-11T02:09:19;56.60;;;34.17;;
13799;SDS011;6971;50.028;9.258;2023-02-11T02:14:22;54.53;;;34.03;;
13799;SDS011;6971;50.028;9.258;2023-02-11T02:19:40;56.13;;;35.23;;
13799;SDS011;6971;50.028;9.258;2023-02-11T02:30:37;56.77;;;35.73;;
13799;SDS011;6971;50.028;9.258;2023-02-11T02:35:42;52.43;;;36.17;;
13799;SDS011;6971;50.028;9.258;2023-02-11T02:41:07;60.43;;;36.73;;
13799;SDS011;6971;50.028;9.258;2023-02-11T02:46:12;56.47;;;35.40;;
13799;SDS011;6971;50.028;9.258;2023-02-11T02:51:37;58.20;;;35.13;;
13799;SDS011;6971;50.028;9.258;2023-02-11T03:02:30;57.83;;;35.63;;
13799;SDS011;6971;50.028;9.258;2023-02-11T03:07:41;55.83;;;37.23;;
13799;SDS011;6971;50.028;9.258;2023-02-11T03:13:02;58.57;;;37.80;;
13799;SDS011;6971;50.028;9.258;2023-02-11T03:18:04;62.20;;;39.70;;
13799;SDS011;6971;50.028;9.258;2023-02-11T03:23:08;61.87;;;38.17;;
13799;SDS011;6971;50.028;9.258;2023-02-11T03:28:21;61.87;;;37.97;;
13799;SDS011;6971;50.028;9.258;2023-02-11T03:33:24;57.77;;;36.10;;
13799;SDS011;6971;50.028;9.258;2023-02-11T03:38:35;64.53;;;38.47;;
13799;SDS011;6971;50.028;9.258;2023-02-11T03:43:46;59.83;;;37.77;;
13799;SDS011;6971;50.028;9.258;2023-02-11T03:48:51;60.73;;;37.37;;
13799;SDS011;6971;50.028;9.258;2023-02-11T03:53:56;56.03;;;35.53;;
13799;SDS011;6971;50.028;9.258;2023-02-11T03:59:00;63.03;;;38.83;;
13799;SDS011;6971;50.028;9.258;2023-02-11T04:04:02;65.47;;;38.80;;
13799;SDS011;6971;50.028;9.258;2023-02-11T04:09:02;59.83;;;35.93;;
13799;SDS011;6971;50.028;9.258;2023-02-11T04:14:03;56.27;;;35.53;;
13799;SDS011;6971;50.028;9.258;2023-02-11T04:19:03;57.50;;;36.00;;
13799;SDS011;6971;50.028;9.258;2023-02-11T04:24:12;60.73;;;39.17;;
13799;SDS011;6971;50.028;9.258;2023-02-11T04:29:13;64.73;;;37.73;;
13799;SDS011;6971;50.028;9.258;2023-02-11T04:34:14;61.93;;;37.10;;
13799;SDS011;6971;50.028;9.258;2023-02-11T04:39:15;63.63;;;37.47;;
13799;SDS011;6971;50.028;9.258;2023-02-11T04:44:15;65.23;;;39.07;;
13799;SDS011;6971;50.028;9.258;2023-02-11T04:49:16;67.80;;;38.43;;
13799;SDS011;6971;50.028;9.258;2023-02-11T04:54:17;60.90;;;36.93;;
13799;SDS011;6971;50.028;9.258;2023-02-11T04:59:17;67.50;;;38.50;;
13799;SDS011;6971;50.028;9.258;2023-02-11T05:04:20;70.33;;;39.63;;
13799;SDS011;6971;50.028;9.258;2023-02-11T05:09:20;63.03;;;39.47;;
13799;SDS011;6971;50.028;9.258;2023-02-11T05:14:21;61.30;;;37.67;;
13799;SDS011;6971;50.028;9.258;2023-02-11T05:19:21;63.87;;;38.70;;
13799;SDS011;6971;50.028;9.258;2023-02-11T05:24:21;70.10;;;40.53;;
13799;SDS011;6971;50.028;9.258;2023-02-11T05:29:22;68.23;;;40.07;;
13799;SDS011;6971;50.028;9.258;2023-02-11T05:34:22;71.00;;;39.50;;
13799;SDS011;6971;50.028;9.258;2023-02-11T05:39:22;65.43;;;39.50;;
13799;SDS011;6971;50.028;9.258;2023-02-11T05:44:23;65.20;;;37.60;;
13799;SDS011;6971;50.028;9.258;2023-02-11T05:49:23;71.13;;;41.00;;
13799;SDS011;6971;50.028;9.258;2023-02-11T05:54:23;71.43;;;40.47;;
13799;SDS011;6971;50.028;9.258;2023-02-11T05:59:24;66.60;;;39.67;;
13799;SDS011;6971;50.028;9.258;2023-02-11T06:04:25;64.73;;;39.17;;
13799;SDS011;6971;50.028;9.258;2023-02-11T06:09:25;66.57;;;38.37;;
13799;SDS011;6971;50.028;9.258;2023-02-11T06:14:26;69.93;;;40.33;;
13799;SDS011;6971;50.028;9.258;2023-02-11T06:19:26;70.40;;;41.07;;
13799;SDS011;6971;50.028;9.258;2023-02-11T06:24:27;68.13;;;41.47;;
13799;SDS011;6971;50.028;9.258;2023-02-11T06:29:27;68.30;;;39.13;;
13799;SDS011;6971;50.028;9.258;2023-02-11T06:34:27;64.80;;;36.57;;
13799;SDS011;6971;50.028;9.258;2023-02-11T06:39:28;66.77;;;37.63;;
13799;SDS011;6971;50.028;9.258;2023-02-11T06:44:28;65.33;;;38.67;;
13799;SDS011;6971;50.028;9.258;2023-02-11T06:49:28;62.43;;;38.87;;
13799;SDS011;6971;50.028;9.258;2023-02-11T06:54:29;63.83;;;36.63;;
13799;SDS011;6971;50.028;9.258;2023-02-11T06:59:29;84.30;;;48.83;;
13799;SDS011;6971;50.028;9.258;2023-02-11T07:04:30;74.50;;;43.13;;
13799;SDS011;6971;50.028;9.258;2023-02-11T07:09:30;74.13;;;40.63;;
13799;SDS011;6971;50.028;9.258;2023-02-11T07:14:30;76.13;;;41.43;;
13799;SDS011;6971;50.028;9.258;2023-02-11T07:19:31;73.50;;;41.60;;
13799;SDS011;6971;50.028;9.258;2023-02-11T07:24:31;65.37;;;38.17;;
13799;SDS011;6971;50.028;9.258;2023-02-11T07:29:32;69.97;;;38.40;;
13799;SDS011;6971;50.028;9.258;2023-02-11T07:34:32;65.00;;;37.87;;
13799;SDS011;6971;50.028;9.258;2023-02-11T07:39:32;65.27;;;37.17;;
13799;SDS011;6971;50.028;9.258;2023-02-11T07:44:33;67.83;;;39.23;;
13799;SDS011;6971;50.028;9.258;2023-02-11T07:49:34;76.63;;;43.53;;
13799;SDS011;6971;50.028;9.258;2023-02-11T07:54:34;74.40;;;41.37;;
13799;SDS011;6971;50.028;9.258;2023-02-11T07:59:35;74.20;;;41.17;;
13799;SDS011;6971;50.028;9.258;2023-02-11T08:04:35;75.80;;;43.73;;
13799;SDS011;6971;50.028;9.258;2023-02-11T08:09:36;71.50;;;41.17;;
13799;SDS011;6971;50.028;9.258;2023-02-11T08:14:36;72.47;;;42.43;;
13799;SDS011;6971;50.028;9.258;2023-02-11T08:19:37;66.73;;;41.07;;
13799;SDS011;6971;50.028;9.258;2023-02-11T08:24:38;75.03;;;42.97;;
13799;SDS011;6971;50.028;9.258;2023-02-11T08:29:38;61.23;;;37.23;;
13799;SDS011;6971;50.028;9.258;2023-02-11T08:34:38;67.20;;;39.40;;
13799;SDS011;6971;50.028;9.258;2023-02-11T08:39:39;57.97;;;37.77;;
13799;SDS011;6971;50.028;9.258;2023-02-11T08:44:40;56.70;;;37.40;;
13799;SDS011;6971;50.028;9.258;2023-02-11T08:49:40;60.93;;;38.27;;
13799;SDS011;6971;50.028;9.258;2023-02-11T08:54:41;58.43;;;37.10;;
13799;SDS011;6971;50.028;9.258;2023-02-11T08:59:42;56.47;;;35.60;;
13799;SDS011;6971;50.028;9.258;2023-02-11T09:04:42;78.30;;;35.90;;
13799;SDS011;6971;50.028;9.258;2023-02-11T09:09:42;60.30;;;34.83;;
13799;SDS011;6971;50.028;9.258;2023-02-11T09:14:43;74.50;;;46.07;;
13799;SDS011;6971;50.028;9.258;2023-02-11T09:19:43;50.17;;;32.27;;
13799;SDS011;6971;50.028;9.258;2023-02-11T09:24:43;48.40;;;32.37;;
13799;SDS011;6971;50.028;9.258;2023-02-11T09:29:44;46.93;;;30.80;;
13799;SDS011;6971;50.028;9.258;2023-02-11T09:34:44;38.77;;;29.27;;
13799;SDS011;6971;50.028;9.258;2023-02-11T09:39:45;41.73;;;26.60;;
13799;SDS011;6971;50.028;9.258;2023-02-11T09:44:45;35.50;;;26.70;;
13799;SDS011;6971;50.028;9.258;2023-02-11T09:49:48;40.60;;;26.90;;
13799;SDS011;6971;50.028;9.258;2023-02-11T09:54:54;38.37;;;25.27;;
13799;SDS011;6971;50.028;9.258;2023-02-11T09:59:57;62.10;;;36.93;;
13799;SDS011;6971;50.028;9.258;2023-02-11T10:20:48;43.43;;;29.70;;
13799;SDS011;6971;50.028;9.258;2023-02-11T10:25:54;41.13;;;28.80;;
13799;SDS011;6971;50.028;9.258;2023-02-11T10:31:00;44.70;;;29.97;;
13799;SDS011;6971;50.028;9.258;2023-02-11T10:36:03;44.53;;;29.17;;
13799;SDS011;6971;50.028;9.258;2023-02-11T10:41:04;42.53;;;28.67;;
13799;SDS011;6971;50.028;9.258;2023-02-11T10:46:05;37.67;;;27.20;;
13799;SDS011;6971;50.028;9.258;2023-02-11T10:51:16;40.50;;;26.60;;
13799;SDS011;6971;50.028;9.258;2023-02-11T10:56:24;43.77;;;28.60;;
13799;SDS011;6971;50.028;9.258;2023-02-11T11:01:37;39.90;;;28.60;;
13799;SDS011;6971;50.028;9.258;2023-02-11T11:06:39;36.27;;;25.07;;
13799;SDS011;6971;50.028;9.258;2023-02-11T11:11:49;41.47;;;26.20;;
13799;SDS011;6971;50.028;9.258;2023-02-11T11:16:52;39.13;;;26.27;;
13799;SDS011;6971;50.028;9.258;2023-02-11T11:21:54;38.03;;;25.13;;
13799;SDS011;6971;50.028;9.258;2023-02-11T11:26:56;49.60;;;31.83;;
13799;SDS011;6971;50.028;9.258;2023-02-11T11:32:22;42.07;;;33.93;;
13799;SDS011;6971;50.028;9.258;2023-02-11T11:37:33;39.43;;;24.73;;
13799;SDS011;6971;50.028;9.258;2023-02-11T11:42:36;36.03;;;23.23;;
13799;SDS011;6971;50.028;9.258;2023-02-11T11:47:39;38.57;;;26.87;;
13799;SDS011;6971;50.028;9.258;2023-02-11T11:52:53;38.37;;;25.03;;
13799;SDS011;6971;50.028;9.258;2023-02-11T11:57:59;36.70;;;26.33;;
13799;SDS011;6971;50.028;9.258;2023-02-11T12:03:11;36.23;;;25.77;;
13799;SDS011;6971;50.028;9.258;2023-02-11T12:08:34;35.77;;;23.90;;
13799;SDS011;6971;50.028;9.258;2023-02-11T12:13:46;36.77;;;26.20;;
13799;SDS011;6971;50.028;9.258;2023-02-11T12:29:52;51.60;;;35.27;;
13799;SDS011;6971;50.028;9.258;2023-02-11T12:40:14;63.40;;;41.30;;
13799;SDS011;6971;50.028;9.258;2023-02-11T12:45:23;46.67;;;28.80;;
13799;SDS011;6971;50.028;9.258;2023-02-11T12:56:17;30.10;;;21.53;;
13799;SDS011;6971;50.028;9.258;2023-02-11T13:06:48;34.17;;;24.87;;
13799;SDS011;6971;50.028;9.258;2023-02-11T13:11:54;32.53;;;22.23;;
13799;SDS011;6971;50.028;9.258;2023-02-11T13:17:24;34.83;;;22.70;;
13799;SDS011;6971;50.028;9.258;2023-02-11T13:23:02;35.10;;;23.73;;
13799;SDS011;6971;50.028;9.258;2023-02-11T13:38:50;34.97;;;24.10;;
13799;SDS011;6971;50.028;9.258;2023-02-11T13:44:00;37.13;;;23.20;;
13799;SDS011;6971;50.028;9.258;2023-02-11T13:49:14;33.87;;;23.17;;
13799;SDS011;6971;50.028;9.258;2023-02-11T13:54:26;36.77;;;23.07;;
13799;SDS011;6971;50.028;9.258;2023-02-11T14:04:32;35.00;;;23.23;;
13799;SDS011;6971;50.028;9.258;2023-02-11T14:09:51;33.07;;;22.87;;
13799;SDS011;6971;50.028;9.258;2023-02-11T14:14:57;47.83;;;31.63;;
13799;SDS011;6971;50.028;9.258;2023-02-11T14:20:00;40.13;;;24.37;;
13799;SDS011;6971;50.028;9.258;2023-02-11T14:25:04;34.43;;;24.47;;
13799;SDS011;6971;50.028;9.258;2023-02-11T14:46:06;35.60;;;25.53;;
13799;SDS011;6971;50.028;9.258;2023-02-11T14:51:09;36.83;;;23.87;;
13799;SDS011;6971;50.028;9.258;2023-02-11T14:56:20;36.87;;;25.20;;
13799;SDS011;6971;50.028;9.258;2023-02-11T15:01:26;33.30;;;24.67;;
13799;SDS011;6971;50.028;9.258;2023-02-11T15:06:39;33.90;;;23.70;;
13799;SDS011;6971;50.028;9.258;2023-02-11T15:11:42;35.30;;;25.50;;
13799;SDS011;6971;50.028;9.258;2023-02-11T15:16:45;33.47;;;23.93;;
13799;SDS011;6971;50.028;9.258;2023-02-11T15:21:46;38.53;;;25.40;;
13799;SDS011;6971;50.028;9.258;2023-02-11T15:27:08;35.70;;;25.73;;
13799;SDS011;6971;50.028;9.258;2023-02-11T15:32:21;34.87;;;23.20;;
13799;SDS011;6971;50.028;9.258;2023-02-11T15:37:24;30.33;;;20.37;;
13799;SDS011;6971;50.028;9.258;2023-02-11T15:42:29;30.63;;;20.90;;
13799;SDS011;6971;50.028;9.258;2023-02-11T15:47:30;31.33;;;22.40;;
13799;SDS011;6971;50.028;9.258;2023-02-11T15:52:31;33.73;;;22.57;;
13799;SDS011;6971;50.028;9.258;2023-02-11T15:57:32;40.00;;;26.27;;
13799;SDS011;6971;50.028;9.258;2023-02-11T16:02:33;35.23;;;24.23;;
13799;SDS011;6971;50.028;9.258;2023-02-11T16:12:38;39.60;;;27.77;;
13799;SDS011;6971;50.028;9.258;2023-02-11T16:17:38;40.03;;;26.67;;
13799;SDS011;6971;50.028;9.258;2023-02-11T16:22:39;39.03;;;26.27;;
13799;SDS011;6971;50.028;9.258;2023-02-11T16:27:40;39.80;;;26.77;;
13799;SDS011;6971;50.028;9.258;2023-02-11T16:32:41;54.13;;;33.77;;
13799;SDS011;6971;50.028;9.258;2023-02-11T16:37:41;36.47;;;25.27;;
13799;SDS011;6971;50.028;9.258;2023-02-11T16:42:42;34.33;;;21.33;;
13799;SDS011;6971;50.028;9.258;2023-02-11T16:47:42;34.00;;;23.77;;
13799;SDS011;6971;50.028;9.258;2023-02-11T16:52:42;31.03;;;20.27;;
13799;SDS011;6971;50.028;9.258;2023-02-11T16:57:45;25.70;;;19.53;;
13799;SDS011;6971;50.028;9.258;2023-02-11T17:02:45;30.07;;;19.20;;
13799;SDS011;6971;50.028;9.258;2023-02-11T17:07:46;25.03;;;18.50;;
13799;SDS011;6971;50.028;9.258;2023-02-11T17:12:47;30.87;;;21.23;;
13799;SDS011;6971;50.028;9.258;2023-02-11T17:17:47;33.57;;;22.97;;
13799;SDS011;6971;50.028;9.258;2023-02-11T17:22:48;28.67;;;19.50;;
13799;SDS011;6971;50.028;9.258;2023-02-11T17:27:48;28.23;;;19.87;;
13799;SDS011;6971;50.028;9.258;2023-02-11T17:32:49;29.43;;;20.20;;
13799;SDS011;6971;50.028;9.258;2023-02-11T17:37:49;28.87;;;20.07;;
13799;SDS011;6971;50.028;9.258;2023-02-11T17:42:50;30.33;;;20.77;;
13799;SDS011;6971;50.028;9.258;2023-02-11T17:47:50;31.90;;;20.57;;
13799;SDS011;6971;50.028;9.258;2023-02-11T17:52:51;26.97;;;18.90;;
13799;SDS011;6971;50.028;9.258;2023-02-11T17:57:51;28.60;;;19.73;;
13799;SDS011;6971;50.028;9.258;2023-02-11T18:02:52;26.40;;;18.33;;
13799;SDS011;6971;50.028;9.258;2023-02-11T18:07:53;31.73;;;20.00;;
13799;SDS011;6971;50.028;9.258;2023-02-11T18:12:53;27.67;;;19.67;;
13799;SDS011;6971;50.028;9.258;2023-02-11T18:17:55;27.87;;;19.47;;
13799;SDS011;6971;50.028;9.258;2023-02-11T18:22:55;30.60;;;19.27;;
13799;SDS011;6971;50.028;9.258;2023-02-11T18:27:55;27.17;;;19.67;;
13799;SDS011;6971;50.028;9.258;2023-02-11T18:32:56;38.80;;;28.00;;
13799;SDS011;6971;50.028;9.258;2023-02-11T18:37:56;54.87;;;45.57;;
13799;SDS011;6971;50.028;9.258;2023-02-11T18:42:57;29.20;;;21.07;;
13799;SDS011;6971;50.028;9.258;2023-02-11T18:47:57;31.53;;;21.30;;
13799;SDS011;6971;50.028;9.258;2023-02-11T18:53:00;32.33;;;23.27;;
13799;SDS011;6971;50.028;9.258;2023-02-11T18:58:00;28.87;;;19.77;;
13799;SDS011;6971;50.028;9.258;2023-02-11T19:03:01;33.03;;;20.10;;
13799;SDS011;6971;50.028;9.258;2023-02-11T19:08:01;27.70;;;19.50;;
13799;SDS011;6971;50.028;9.258;2023-02-11T19:13:02;29.23;;;20.43;;
13799;SDS011;6971;50.028;9.258;2023-02-11T19:18:05;27.87;;;20.07;;
13799;SDS011;6971;50.028;9.258;2023-02-11T19:23:06;34.63;;;26.27;;
13799;SDS011;6971;50.028;9.258;2023-02-11T19:28:06;36.63;;;27.20;;
13799;SDS011;6971;50.028;9.258;2023-02-11T19:33:07;28.83;;;19.97;;
13799;SDS011;6971;50.028;9.258;2023-02-11T19:38:07;27.93;;;19.07;;
13799;SDS011;6971;50.028;9.258;2023-02-11T19:43:07;26.37;;;19.43;;
13799;SDS011;6971;50.028;9.258;2023-02-11T19:48:08;29.27;;;19.83;;
13799;SDS011;6971;50.028;9.258;2023-02-11T19:53:11;32.50;;;20.63;;
13799;SDS011;6971;50.028;9.258;2023-02-11T19:58:12;26.57;;;19.83;;
13799;SDS011;6971;50.028;9.258;2023-02-11T20:03:13;31.40;;;20.27;;
13799;SDS011;6971;50.028;9.258;2023-02-11T20:08:13;28.07;;;19.83;;
13799;SDS011;6971;50.028;9.258;2023-02-11T20:13:15;29.23;;;19.90;;
13799;SDS011;6971;50.028;9.258;2023-02-11T20:18:16;28.80;;;20.70;;
13799;SDS011;6971;50.028;9.258;2023-02-11T20:23:16;26.53;;;19.10;;
13799;SDS011;6971;50.028;9.258;2023-02-11T20:28:16;28.40;;;20.83;;
13799;SDS011;6971;50.028;9.258;2023-02-11T20:33:17;34.77;;;22.90;;
13799;SDS011;6971;50.028;9.258;2023-02-11T20:38:17;29.63;;;21.30;;
13799;SDS011;6971;50.028;9.258;2023-02-11T20:43:17;29.90;;;20.73;;
13799;SDS011;6971;50.028;9.258;2023-02-11T20:48:19;32.80;;;21.87;;
13799;SDS011;6971;50.028;9.258;2023-02-11T20:53:19;32.77;;;21.53;;
13799;SDS011;6971;50.028;9.258;2023-02-11T20:58:20;29.03;;;20.73;;
13799;SDS011;6971;50.028;9.258;2023-02-11T21:03:20;30.87;;;21.77;;
13799;SDS011;6971;50.028;9.258;2023-02-11T21:08:20;28.57;;;19.97;;
13799;SDS011;6971;50.028;9.258;2023-02-11T21:13:21;31.97;;;21.13;;
13799;SDS011;6971;50.028;9.258;2023-02-11T21:18:21;30.30;;;21.20;;
13799;SDS011;6971;50.028;9.258;2023-02-11T21:23:23;32.53;;;22.23;;
13799;SDS011;6971;50.028;9.258;2023-02-11T21:28:23;27.80;;;19.37;;
13799;SDS011;6971;50.028;9.258;2023-02-11T21:33:27;26.73;;;20.10;;
13799;SDS011;6971;50.028;9.258;2023-02-11T21:38:29;34.13;;;22.83;;
13799;SDS011;6971;50.028;9.258;2023-02-11T21:43:29;33.03;;;22.53;;
13799;SDS011;6971;50.028;9.258;2023-02-11T21:48:30;34.53;;;22.20;;
13799;SDS011;6971;50.028;9.258;2023-02-11T21:53:31;37.27;;;22.20;;
13799;SDS011;6971;50.028;9.258;2023-02-11T21:58:31;31.70;;;21.83;;
13799;SDS011;6971;50.028;9.258;2023-02-11T22:03:32;29.90;;;20.50;;
13799;SDS011;6971;50.028;9.258;2023-02-11T22:08:32;32.90;;;24.47;;
13799;SDS011;6971;50.028;9.258;2023-02-11T22:13:32;36.17;;;23.50;;
13799;SDS011;6971;50.028;9.258;2023-02-11T22:18:34;37.13;;;24.30;;
13799;SDS011;6971;50.028;9.258;2023-02-11T22:23:34;32.23;;;22.97;;
13799;SDS011;6971;50.028;9.258;2023-02-11T22:28:35;31.77;;;21.40;;
13799;SDS011;6971;50.028;9.258;2023-02-11T22:33:37;34.63;;;22.10;;
13799;SDS011;6971;50.028;9.258;2023-02-11T22:38:38;34.00;;;23.63;;
13799;SDS011;6971;50.028;9.258;2023-02-11T22:43:38;31.83;;;23.37;;
13799;SDS011;6971;50.028;9.258;2023-02-11T22:48:40;36.17;;;25.10;;
13799;SDS011;6971;50.028;9.258;2023-02-11T22:53:41;33.43;;;23.23;;
13799;SDS011;6971;50.028;9.258;2023-02-11T22:58:44;32.83;;;23.07;;
13799;SDS011;6971;50.028;9.258;2023-02-11T23:03:44;32.80;;;22.97;;
13799;SDS011;6971;50.028;9.258;2023-02-11T23:08:45;32.30;;;21.37;;
13799;SDS011;6971;50.028;9.258;2023-02-11T23:13:46;34.40;;;24.73;;
13799;SDS011;6971;50.028;9.258;2023-02-11T23:18:48;36.03;;;23.80;;
13799;SDS011;6971;50.028;9.258;2023-02-11T23:23:52;33.57;;;23.40;;
13799;SDS011;6971;50.028;9.258;2023-02-11T23:28:57;37.10;;;24.53;;
13799;SDS011;6971;50.028;9.258;2023-02-11T23:33:58;36.30;;;24.17;;
13799;SDS011;6971;50.028;9.258;2023-02-11T23:39:00;34.60;;;22.70;;
13799;SDS011;6971;50.028;9.258;2023-02-11T23:44:00;39.23;;;24.87;;
13799;SDS011;6971;50.028;9.258;2023-02-11T23:49:00;35.83;;;24.30;;
13799;SDS011;6971;50.028;9.258;2023-02-11T23:54:01;41.57;;;26.03;;
13799;SDS011;6971;50.028;9.258;2023-02-11T23:59:02;35.33;;;23.50;;
